Time;durP1;ratioP1;P1;durP2;ratioP2;P2;SDS_P1;SDS_P2;PMS_P1;PMS_P2;Temp;Humidity;BMP_temperature;BMP_pressure;BME280_temperature;BME280_humidity;BME280_pressure;Samples;Min_cycle;Max_cycle;Signal;HPM_P1;HPM_P2
2023/06/29 00:00:08;;;;;;;;;66.50;52.00;;;;;24.64;50.58;101374.84;5059184;27;70566;-54
2023/06/29 00:02:34;;;;;;;;;62.00;49.50;;;;;24.64;50.67;101372.13;5075485;27;46333;-54
2023/06/29 00:04:59;;;;;;;;;63.50;50.00;;;;;24.64;50.16;101374.84;5063845;27;68492;-54
2023/06/29 00:07:25;;;;;;;;;71.25;52.75;;;;;24.61;50.75;101371.41;5075460;28;45476;-54
2023/06/29 00:09:52;;;;;;;;;68.50;55.75;;;;;24.60;50.40;101369.69;5078862;27;45385;-54
2023/06/29 00:12:17;;;;;;;;;76.25;67.00;;;;;24.56;50.56;101362.88;5073166;27;47231;-53
2023/06/29 00:14:43;;;;;;;;;73.75;61.50;;;;;24.53;50.81;101365.88;5073970;27;45485;-54
2023/06/29 00:17:08;;;;;;;;;83.75;76.75;;;;;24.51;51.13;101365.19;5068491;27;47900;-54
2023/06/29 00:19:33;;;;;;;;;95.50;83.00;;;;;24.49;50.81;101367.19;5077585;27;68500;-55
2023/06/29 00:21:59;;;;;;;;;101.50;92.75;;;;;24.47;50.99;101354.78;5072526;27;45440;-54
2023/06/29 00:24:26;;;;;;;;;89.50;83.75;;;;;24.46;51.31;101356.66;5071022;27;45487;-54
2023/06/29 00:26:51;;;;;;;;;102.50;92.75;;;;;24.45;51.23;101361.22;5073670;28;45527;-54
2023/06/29 00:29:17;;;;;;;;;88.00;79.50;;;;;24.43;51.08;101354.22;5075876;27;63166;-54
2023/06/29 00:31:42;;;;;;;;;91.25;84.25;;;;;24.42;51.59;101356.09;5071838;27;50082;-54
2023/06/29 00:34:07;;;;;;;;;92.00;82.25;;;;;24.40;51.58;101352.66;5064743;27;45568;-55
2023/06/29 00:36:33;;;;;;;;;93.75;85.50;;;;;24.39;51.34;101350.09;5073225;27;65116;-54
2023/06/29 00:38:58;;;;;;;;;90.50;82.25;;;;;24.37;51.65;101346.69;5067069;27;61687;-54
2023/06/29 00:41:23;;;;;;;;;88.75;78.75;;;;;24.35;51.51;101346.00;5069504;28;46855;-54
2023/06/29 00:43:49;;;;;;;;;97.75;86.00;;;;;24.32;51.62;101338.16;5076576;27;63783;-54
2023/06/29 00:46:18;;;;;;;;;88.25;78.75;;;;;24.27;51.53;101325.00;5057626;28;45394;-54
2023/06/29 00:48:44;;;;;;;;;85.75;76.75;;;;;24.22;52.36;101322.78;5076579;27;45458;-54
2023/06/29 00:51:09;;;;;;;;;86.75;77.50;;;;;24.19;52.31;101322.22;5075076;28;68979;-54
2023/06/29 00:53:34;;;;;;;;;83.75;76.00;;;;;24.17;52.23;101318.78;5073618;28;64003;-54
2023/06/29 00:56:01;;;;;;;;;80.00;74.50;;;;;24.15;52.04;101324.38;5076096;27;66537;-54
2023/06/29 00:58:26;;;;;;;;;79.25;66.25;;;;;24.14;52.35;101325.38;5072841;27;45569;-54
2023/06/29 01:00:51;;;;;;;;;74.00;60.25;;;;;24.15;52.81;101318.94;5076807;27;46186;-55
2023/06/29 01:03:17;;;;;;;;;81.00;74.50;;;;;24.17;52.42;101314.22;5073685;27;66666;-55
2023/06/29 01:05:45;;;;;;;;;92.50;82.50;;;;;24.15;52.48;101316.22;5075538;27;52730;-55
2023/06/29 01:08:19;;;;;;;;;90.50;83.50;;;;;24.16;53.19;101301.66;5085328;27;46237;-54
2023/06/29 01:10:46;;;;;;;;;100.50;90.50;;;;;24.13;52.96;101301.94;5070709;27;46654;-54
2023/06/29 01:13:13;;;;;;;;;105.25;91.50;;;;;24.13;53.22;101306.53;5085914;27;45734;-55
2023/06/29 01:15:39;;;;;;;;;93.25;83.00;;;;;24.12;52.85;101305.69;5068859;27;46298;-54
2023/06/29 01:18:06;;;;;;;;;91.00;84.50;;;;;24.11;53.05;101303.97;5071399;28;58471;-54
2023/06/29 01:20:32;;;;;;;;;75.50;63.25;;;;;24.09;53.26;101305.97;5072978;27;74178;-55
2023/06/29 01:23:18;;;;;;;;;85.50;74.50;;;;;24.09;53.16;101304.13;5062128;28;71909;-55
2023/06/29 01:25:44;;;;;;;;;76.50;65.00;;;;;24.10;53.12;101307.69;5074252;27;45786;-55
2023/06/29 01:28:10;;;;;;;;;73.50;59.50;;;;;24.09;53.49;101311.41;5073197;28;68132;-55
2023/06/29 01:30:49;;;;;;;;;78.75;72.00;;;;;24.05;53.06;101304.56;5066410;27;51160;-55
2023/06/29 01:33:20;;;;;;;;;76.50;65.00;;;;;24.04;53.44;101303.72;5070500;28;45481;-55
2023/06/29 01:35:45;;;;;;;;;77.75;70.00;;;;;24.05;53.64;101310.00;5076159;27;45964;-59
2023/06/29 01:38:17;;;;;;;;;79.00;66.00;;;;;24.03;53.75;101306.59;5068762;27;51453;-54
2023/06/29 01:40:44;;;;;;;;;78.75;66.00;;;;;24.02;53.75;101304.88;5088017;27;46867;-55
2023/06/29 01:43:09;;;;;;;;;82.25;68.50;;;;;24.00;53.33;101306.91;5076306;27;45528;-54
2023/06/29 01:45:36;;;;;;;;;75.75;63.50;;;;;23.99;53.70;101306.06;5077963;27;62529;-56
2023/06/29 01:48:01;;;;;;;;;77.00;64.75;;;;;23.99;53.66;101300.63;5071357;28;45663;-55
2023/06/29 01:50:27;;;;;;;;;84.50;73.00;;;;;24.00;53.98;101298.75;5078173;27;57200;-55
2023/06/29 01:52:52;;;;;;;;;75.00;65.50;;;;;24.00;53.80;101302.34;5084306;27;45204;-55
2023/06/29 01:55:19;;;;;;;;;84.00;70.75;;;;;24.00;54.42;101306.91;5080164;27;45378;-56
2023/06/29 01:57:44;;;;;;;;;77.75;68.75;;;;;23.97;54.33;101291.75;5080164;27;45430;-55
2023/06/29 02:00:10;;;;;;;;;82.50;71.00;;;;;23.97;54.07;101294.47;5079540;27;65500;-55
2023/06/29 02:02:36;;;;;;;;;81.75;67.25;;;;;23.95;53.69;101291.91;5070260;27;45506;-54
2023/06/29 02:05:01;;;;;;;;;81.50;71.75;;;;;23.95;54.35;101288.34;5078486;27;45394;-54
2023/06/29 02:07:27;;;;;;;;;83.50;77.25;;;;;23.94;54.35;101283.91;5077470;28;45626;-55
2023/06/29 02:09:52;;;;;;;;;80.00;72.75;;;;;23.94;53.92;101287.47;5074059;27;68868;-55
2023/06/29 02:12:17;;;;;;;;;85.75;79.50;;;;;23.92;54.27;101281.38;5075377;27;45507;-55
2023/06/29 02:14:43;;;;;;;;;81.50;72.75;;;;;23.92;54.38;101284.09;5062204;27;45479;-55
2023/06/29 02:17:09;;;;;;;;;78.00;69.00;;;;;23.92;54.61;101288.63;5078955;27;45894;-55
2023/06/29 02:19:34;;;;;;;;;84.25;71.25;;;;;23.91;54.33;101286.94;5079725;27;46413;-54
2023/06/29 02:21:59;;;;;;;;;81.50;68.75;;;;;23.89;55.01;101289.75;5077372;28;64692;-54
2023/06/29 02:24:25;;;;;;;;;72.75;63.25;;;;;23.89;54.40;101281.63;5076640;27;46178;-54
2023/06/29 02:26:50;;;;;;;;;73.25;60.75;;;;;23.88;54.52;101284.50;5090333;27;45778;-55
2023/06/29 02:29:16;;;;;;;;;77.25;60.50;;;;;23.85;54.68;101274.78;5076207;27;46502;-54
2023/06/29 02:31:41;;;;;;;;;66.75;50.75;;;;;23.84;54.69;101274.94;5069257;27;45401;-54
2023/06/29 02:34:06;;;;;;;;;70.75;56.25;;;;;23.81;55.25;101272.53;5069581;27;45543;-54
2023/06/29 02:36:32;;;;;;;;;66.50;52.25;;;;;23.78;55.19;101273.72;5070863;27;45338;-54
2023/06/29 02:38:57;;;;;;;;;65.50;50.50;;;;;23.76;55.36;101268.41;5070407;27;67045;-55
2023/06/29 02:41:22;;;;;;;;;66.00;52.25;;;;;23.75;55.31;101271.28;5076570;27;57605;-54
2023/06/29 02:43:47;;;;;;;;;64.75;52.00;;;;;23.73;55.31;101270.59;5073501;27;64463;-55
2023/06/29 02:46:13;;;;;;;;;63.50;51.50;;;;;23.69;55.26;101267.31;5078383;27;55372;-54
2023/06/29 02:48:38;;;;;;;;;62.50;49.25;;;;;23.68;55.50;101267.47;5078643;27;45363;-56
2023/06/29 02:51:04;;;;;;;;;62.33;47.33;;;;;23.65;55.69;101265.03;5079392;27;69978;-55
2023/06/29 02:53:29;;;;;;;;;62.33;50.00;;;;;23.61;55.62;101265.34;5075300;27;45356;-54
2023/06/29 02:55:54;;;;;;;;;62.33;47.67;;;;;23.60;55.43;101257.38;5078659;27;66575;-55
2023/06/29 02:58:20;;;;;;;;;54.67;43.67;;;;;23.59;55.56;101267.34;5075799;27;63047;-54
2023/06/29 03:00:45;;;;;;;;;56.00;44.67;;;;;23.58;55.89;101262.94;5074837;28;45389;-54
2023/06/29 03:03:11;;;;;;;;;62.67;45.00;;;;;23.57;55.87;101266.66;5078410;27;68136;-55
2023/06/29 03:05:36;;;;;;;;;53.33;44.00;;;;;23.56;56.35;101264.94;5069419;27;64613;-54
2023/06/29 03:08:02;;;;;;;;;52.00;42.67;;;;;23.56;56.30;101264.94;5069752;28;73652;-54
2023/06/29 03:10:27;;;;;;;;;52.33;42.67;;;;;23.55;56.05;101263.22;5071185;27;45400;-55
2023/06/29 03:12:52;;;;;;;;;53.00;42.33;;;;;23.55;56.20;101270.53;5082522;27;61228;-54
2023/06/29 03:15:18;;;;;;;;;46.00;39.00;;;;;23.53;56.15;101264.38;5079106;27;45526;-54
2023/06/29 03:17:43;;;;;;;;;49.33;37.33;;;;;23.49;56.66;101265.69;5078986;27;45565;-54
2023/06/29 03:20:09;;;;;;;;;42.67;36.00;;;;;23.46;56.11;101262.28;5070851;28;69747;-54
2023/06/29 03:22:34;;;;;;;;;45.67;37.00;;;;;23.45;56.41;101267.84;5074939;27;45430;-55
2023/06/29 03:25:00;;;;;;;;;36.33;33.33;;;;;23.45;56.52;101268.72;5093630;27;45632;-54
2023/06/29 03:27:25;;;;;;;;;46.67;38.33;;;;;23.43;56.84;101268.00;5074032;27;58968;-54
2023/06/29 03:29:52;;;;;;;;;45.00;37.33;;;;;23.43;56.56;101262.59;5082862;27;71114;-54
2023/06/29 03:32:17;;;;;;;;;49.33;38.00;;;;;23.41;56.82;101264.59;5075165;27;45359;-54
2023/06/29 03:34:43;;;;;;;;;45.33;36.33;;;;;23.42;57.20;101273.59;5074905;27;65303;-55
2023/06/29 03:37:08;;;;;;;;;45.33;35.33;;;;;23.42;56.68;101276.31;5071604;27;46583;-54
2023/06/29 03:39:33;;;;;;;;;41.67;34.33;;;;;23.41;56.73;101266.44;5071359;27;45389;-54
2023/06/29 03:41:59;;;;;;;;;48.33;38.33;;;;;23.41;56.95;101263.72;5074525;27;60892;-54
2023/06/29 03:44:24;;;;;;;;;47.00;39.33;;;;;23.39;57.16;101266.59;5075940;27;45481;-54
2023/06/29 03:46:49;;;;;;;;;44.33;33.00;;;;;23.37;57.41;101262.31;5073042;27;71292;-54
2023/06/29 03:49:15;;;;;;;;;39.33;32.33;;;;;23.35;57.50;101264.31;5074718;27;63057;-54
2023/06/29 03:51:40;;;;;;;;;34.33;31.33;;;;;23.31;57.58;101263.78;5077695;28;45680;-54
2023/06/29 03:54:05;;;;;;;;;38.33;32.33;;;;;23.28;57.76;101267.66;5062013;28;46667;-54
2023/06/29 03:56:33;;;;;;;;;43.67;33.00;;;;;23.25;58.53;101262.50;5072477;27;70447;-54
2023/06/29 03:58:59;;;;;;;;;40.33;33.00;;;;;23.21;58.13;101263.81;5069696;27;45461;-54
2023/06/29 04:01:24;;;;;;;;;45.00;35.33;;;;;23.17;58.37;101265.13;5061372;27;60049;-55
2023/06/29 04:03:50;;;;;;;;;37.67;32.00;;;;;23.16;58.32;101259.84;5072076;27;57667;-54
2023/06/29 04:06:15;;;;;;;;;43.67;33.33;;;;;23.17;58.45;101262.41;5068563;27;45922;-55
2023/06/29 04:08:41;;;;;;;;;37.33;31.67;;;;;23.16;58.80;101252.56;5068335;27;45576;-54
2023/06/29 04:11:06;;;;;;;;;36.00;32.00;;;;;23.15;59.15;101255.41;5077651;27;54185;-55
2023/06/29 04:13:31;;;;;;;;;38.67;33.00;;;;;23.15;58.75;101248.13;5071217;27;45655;-54
2023/06/29 04:15:57;;;;;;;;;39.67;32.67;;;;;23.13;59.09;101244.69;5070841;27;70779;-54
2023/06/29 04:18:22;;;;;;;;;37.33;33.33;;;;;23.13;58.96;101240.09;5074338;27;50068;-54
2023/06/29 04:20:47;;;;;;;;;30.67;30.00;;;;;23.12;59.35;101240.25;5074487;27;45471;-54
2023/06/29 04:23:15;;;;;;;;;39.33;31.00;;;;;23.11;59.07;101242.13;5074695;27;59441;-54
2023/06/29 04:25:42;;;;;;;;;40.33;33.33;;;;;23.09;59.36;101241.41;5051082;28;47756;-54
2023/06/29 04:28:08;;;;;;;;;34.67;30.33;;;;;23.09;59.19;101236.00;5071662;27;45602;-54
2023/06/29 04:30:36;;;;;;;;;44.00;32.67;;;;;23.09;59.32;101238.69;5071797;28;45401;-54
2023/06/29 04:33:09;;;;;;;;;41.33;34.33;;;;;23.09;59.18;101238.69;5069765;27;45520;-55
2023/06/29 04:35:38;;;;;;;;;42.33;34.00;;;;;23.09;59.33;101238.69;5070978;27;46430;-54
2023/06/29 04:38:04;;;;;;;;;33.33;29.67;;;;;23.10;59.82;101231.41;5067816;27;45848;-54
2023/06/29 04:40:30;;;;;;;;;39.00;31.33;;;;;23.10;59.53;101234.13;5074745;28;45316;-54
2023/06/29 04:42:55;;;;;;;;;35.67;31.00;;;;;23.11;59.97;101236.69;5074086;27;62820;-54
2023/06/29 04:45:20;;;;;;;;;34.33;31.67;;;;;23.10;59.79;101240.41;5072925;27;46242;-54
2023/06/29 04:47:49;;;;;;;;;32.33;30.67;;;;;23.12;59.76;101237.53;5077626;27;66362;-54
2023/06/29 04:50:15;;;;;;;;;31.33;27.67;;;;;23.14;59.72;101235.59;5082236;27;47568;-54
2023/06/29 04:52:40;;;;;;;;;34.33;32.00;;;;;23.15;59.83;101245.41;5085283;27;45672;-54
2023/06/29 04:55:07;;;;;;;;;38.00;31.67;;;;;23.15;60.06;101247.28;5069902;28;45393;-54
2023/06/29 04:57:32;;;;;;;;;32.67;29.67;;;;;23.15;59.79;101253.53;5077834;27;45550;-54
2023/06/29 04:59:58;;;;;;;;;42.33;32.33;;;;;23.16;59.67;101252.56;5077267;27;65209;-54
2023/06/29 05:02:23;;;;;;;;;37.67;32.00;;;;;23.11;60.22;101257.53;5078192;27;45468;-54
2023/06/29 05:04:49;;;;;;;;;39.67;33.00;;;;;23.07;60.28;101259.69;5081895;27;45409;-54
2023/06/29 05:07:15;;;;;;;;;41.67;34.00;;;;;23.05;60.31;101255.41;5072917;27;63386;-54
2023/06/29 05:09:40;;;;;;;;;34.67;30.00;;;;;23.03;60.46;101252.84;5070744;28;45306;-54
2023/06/29 05:12:07;;;;;;;;;35.00;30.00;;;;;23.00;60.64;101255.88;5065647;28;53239;-54
2023/06/29 05:14:32;;;;;;;;;31.33;29.67;;;;;22.98;60.69;101249.72;5074610;27;46395;-54
2023/06/29 05:16:58;;;;;;;;;41.67;33.33;;;;;22.98;61.38;101247.00;5072017;27;46652;-53
2023/06/29 05:19:23;;;;;;;;;40.00;32.67;;;;;22.98;60.55;101254.28;5066800;27;45434;-54
2023/06/29 05:21:48;;;;;;;;;44.33;35.33;;;;;22.91;61.27;101245.91;5074282;27;64855;-54
2023/06/29 05:24:14;;;;;;;;;33.67;28.67;;;;;22.91;61.53;101254.03;5076918;27;69325;-53
2023/06/29 05:26:39;;;;;;;;;41.33;33.00;;;;;22.88;61.32;101252.47;5078929;27;45440;-54
2023/06/29 05:29:04;;;;;;;;;39.67;32.00;;;;;22.92;61.51;101258.47;5079580;27;59949;-54
2023/06/29 05:31:30;;;;;;;;;42.00;34.67;;;;;22.91;61.91;101257.59;5066116;28;63150;-54
2023/06/29 05:33:55;;;;;;;;;37.67;31.33;;;;;22.91;61.85;101260.31;5079165;28;72244;-56
2023/06/29 05:36:20;;;;;;;;;41.00;32.00;;;;;22.92;61.74;101264.72;5077105;27;57276;-54
2023/06/29 05:38:46;;;;;;;;;39.33;32.00;;;;;22.92;61.59;101256.59;5078601;28;45570;-54
2023/06/29 05:41:11;;;;;;;;;36.00;30.33;;;;;22.94;61.75;101253.72;5080007;27;54063;-54
2023/06/29 05:43:36;;;;;;;;;42.00;33.00;;;;;22.95;62.05;101255.44;5079968;27;46810;-54
2023/06/29 05:46:02;;;;;;;;;36.33;32.33;;;;;23.00;61.39;101260.41;5073112;27;46442;-54
2023/06/29 05:48:28;;;;;;;;;38.33;32.33;;;;;23.04;60.96;101253.72;5077880;27;45499;-54
2023/06/29 05:50:53;;;;;;;;;38.67;32.33;;;;;23.06;61.42;101255.28;5080336;27;45349;-54
2023/06/29 05:53:18;;;;;;;;;38.33;31.67;;;;;23.12;61.36;101257.38;5077803;28;46943;-55
2023/06/29 05:55:44;;;;;;;;;36.67;32.00;;;;;23.21;61.52;101255.69;5078948;28;69247;-54
2023/06/29 05:58:09;;;;;;;;;39.00;31.00;;;;;23.31;61.59;101252.06;5077085;27;61733;-54
2023/06/29 06:00:34;;;;;;;;;38.00;33.67;;;;;23.38;60.93;101256.75;5074208;27;45383;-54
2023/06/29 06:03:00;;;;;;;;;44.00;35.00;;;;;23.41;60.57;101253.75;5094293;27;52067;-54
2023/06/29 06:05:25;;;;;;;;;43.67;31.67;;;;;23.42;60.36;101249.16;5068431;28;61814;-54
2023/06/29 06:07:50;;;;;;;;;42.33;31.67;;;;;23.42;60.88;101239.16;5079519;27;53540;-53
2023/06/29 06:10:16;;;;;;;;;37.00;32.00;;;;;23.46;60.65;101239.72;5077378;27;64302;-53
2023/06/29 06:12:41;;;;;;;;;45.33;35.33;;;;;23.51;60.29;101247.41;5094318;27;48350;-54
2023/06/29 06:15:11;;;;;;;;;40.67;32.67;;;;;23.57;60.33;101244.94;5077352;27;45615;-54
2023/06/29 06:17:36;;;;;;;;;42.67;33.00;;;;;23.65;60.03;101251.47;5080377;27;45721;-54
2023/06/29 06:20:04;;;;;;;;;42.00;34.33;;;;;23.70;60.14;101241.00;5077286;27;46028;-53
2023/06/29 06:22:30;;;;;;;;;43.33;32.33;;;;;23.75;59.49;101238.69;5080032;27;45511;-58
2023/06/29 06:24:55;;;;;;;;;34.00;28.33;;;;;23.84;59.07;101240.47;5076100;27;70584;-58
2023/06/29 06:27:20;;;;;;;;;41.33;32.33;;;;;23.95;58.66;101240.31;5075487;27;68457;-58
2023/06/29 06:29:46;;;;;;;;;39.00;32.00;;;;;24.05;58.37;101236.66;5077375;28;45375;-58
2023/06/29 06:32:11;;;;;;;;;32.67;29.33;;;;;24.14;58.40;101243.03;5077231;27;46521;-58
2023/06/29 06:34:37;;;;;;;;;38.33;32.33;;;;;24.19;58.25;101244.25;5078186;27;45668;-58
2023/06/29 06:37:03;;;;;;;;;31.67;28.67;;;;;24.26;57.55;101244.50;5093370;27;45671;-58
2023/06/29 06:39:32;;;;;;;;;42.00;34.00;;;;;24.34;57.90;101243.72;5076602;27;45456;-58
2023/06/29 06:41:58;;;;;;;;;32.33;30.33;;;;;24.37;57.54;101241.53;5078478;27;45716;-58
2023/06/29 06:44:23;;;;;;;;;30.33;29.33;;;;;24.45;57.54;101249.75;5079927;28;45352;-58
2023/06/29 06:46:48;;;;;;;;;35.33;30.00;;;;;24.55;57.05;101246.13;5079675;27;59055;-58
2023/06/29 06:49:14;;;;;;;;;34.33;31.33;;;;;24.69;56.90;101250.16;5076293;28;64410;-58
2023/06/29 06:51:39;;;;;;;;;42.33;35.33;;;;;24.79;56.91;101242.75;5070461;27;45458;-58
2023/06/29 06:54:04;;;;;;;;;42.00;33.00;;;;;24.88;56.74;101241.78;5079098;27;66961;-57
2023/06/29 06:56:30;;;;;;;;;44.67;33.00;;;;;24.90;56.19;101244.34;5070837;27;63359;-58
2023/06/29 06:58:55;;;;;;;;;38.33;33.67;;;;;24.87;56.21;101239.22;5070004;27;51327;-57
2023/06/29 07:01:22;;;;;;;;;39.00;31.00;;;;;24.84;55.70;101253.16;5077269;28;46984;-57
2023/06/29 07:03:47;;;;;;;;;48.67;35.67;;;;;24.80;56.71;101249.88;5079947;27;45888;-57
2023/06/29 07:06:13;;;;;;;;;32.67;30.33;;;;;24.77;55.84;101242.06;5073626;27;45359;-57
2023/06/29 07:08:38;;;;;;;;;41.00;33.00;;;;;24.81;56.28;101246.16;5073076;27;45425;-58
2023/06/29 07:11:03;;;;;;;;;40.00;32.33;;;;;24.87;56.07;101245.50;5072049;28;64853;-58
2023/06/29 07:13:29;;;;;;;;;35.67;31.67;;;;;24.94;55.61;101246.59;5076679;27;45428;-58
2023/06/29 07:15:55;;;;;;;;;35.33;33.00;;;;;25.03;56.56;101243.91;5077400;27;45515;-58
2023/06/29 07:18:20;;;;;;;;;39.33;34.00;;;;;25.05;55.94;101248.16;5075789;28;45535;-58
2023/06/29 07:20:48;;;;;;;;;44.00;34.67;;;;;25.12;54.96;101242.09;5068400;28;45514;-58
2023/06/29 07:23:15;;;;;;;;;44.00;32.33;;;;;25.16;55.30;101248.91;5068744;27;45438;-58
2023/06/29 07:25:41;;;;;;;;;38.33;31.33;;;;;25.19;54.70;101240.44;5095061;27;45335;-58
2023/06/29 07:28:06;;;;;;;;;42.33;33.67;;;;;25.23;55.12;101242.66;5078169;27;45399;-58
2023/06/29 07:30:31;;;;;;;;;37.00;32.33;;;;;25.32;54.37;101240.84;5078850;27;46446;-58
2023/06/29 07:32:57;;;;;;;;;43.00;35.00;;;;;25.45;54.89;101237.69;5070014;27;45662;-57
2023/06/29 07:35:22;;;;;;;;;43.33;34.33;;;;;25.46;54.30;101244.84;5071732;28;60976;-58
2023/06/29 07:37:48;;;;;;;;;40.00;34.67;;;;;25.50;54.92;101237.19;5069985;27;45837;-58
2023/06/29 07:40:13;;;;;;;;;40.33;32.33;;;;;25.57;54.28;101233.63;5074730;27;47349;-58
2023/06/29 07:42:39;;;;;;;;;29.33;28.33;;;;;25.67;54.45;101241.69;5069228;27;45555;-58
2023/06/29 07:45:05;;;;;;;;;37.67;34.00;;;;;25.82;54.06;101236.44;5074118;27;45367;-58
2023/06/29 07:47:31;;;;;;;;;43.00;35.33;;;;;25.99;53.44;101236.47;5077711;27;45596;-58
2023/06/29 07:49:56;;;;;;;;;41.00;33.67;;;;;26.13;53.42;101235.84;5074153;28;45496;-59
2023/06/29 07:52:22;;;;;;;;;34.00;31.00;;;;;26.32;52.96;101234.69;5077644;27;45436;-58
2023/06/29 07:54:49;;;;;;;;;38.00;32.00;;;;;26.47;52.30;101234.00;5093045;27;45564;-58
2023/06/29 07:57:14;;;;;;;;;39.67;35.00;;;;;26.53;51.95;101230.56;5077919;27;45476;-58
2023/06/29 07:59:40;;;;;;;;;40.00;31.67;;;;;26.59;51.66;101227.16;5070705;28;45350;-57
2023/06/29 08:02:05;;;;;;;;;45.67;33.00;;;;;26.78;51.45;101225.97;5091296;27;45425;-58
2023/06/29 08:04:31;;;;;;;;;32.67;30.67;;;;;26.94;50.98;101226.97;5063549;27;45390;-57
2023/06/29 08:06:56;;;;;;;;;41.00;32.33;;;;;27.13;50.44;101226.56;5075713;27;45449;-57
2023/06/29 08:09:21;;;;;;;;;39.00;32.00;;;;;27.30;50.30;101226.47;5077154;27;73972;-57
2023/06/29 08:11:47;;;;;;;;;35.33;31.67;;;;;28.08;48.96;101211.06;5074380;28;71399;-58
2023/06/29 08:14:12;;;;;;;;;40.00;32.00;;;;;28.84;47.99;101219.31;5090437;27;45367;-58
2023/06/29 08:16:37;;;;;;;;;39.00;33.00;;;;;28.86;46.09;101211.78;5075124;27;58928;-57
2023/06/29 08:19:03;;;;;;;;;32.00;28.67;;;;;28.91;46.31;101213.09;5053815;28;47484;-57
2023/06/29 08:21:28;;;;;;;;;39.00;34.33;;;;;29.25;46.49;101211.66;5064708;28;46231;-58
2023/06/29 08:23:53;;;;;;;;;36.67;31.33;;;;;30.20;44.68;101209.81;5074098;27;66139;-58
2023/06/29 08:26:19;;;;;;;;;39.67;32.33;;;;;30.17;43.39;101216.53;5069804;27;45505;-58
2023/06/29 08:28:45;;;;;;;;;44.33;34.00;;;;;29.96;43.32;101216.53;5075384;27;45673;-58
2023/06/29 08:31:10;;;;;;;;;34.33;30.67;;;;;29.78;44.40;101220.56;5069407;27;61930;-58
2023/06/29 08:33:36;;;;;;;;;41.67;34.33;;;;;29.58;43.60;101219.47;5070174;28;45502;-58
2023/06/29 08:36:01;;;;;;;;;37.67;32.67;;;;;29.41;43.97;101218.84;5070366;27;61427;-58
2023/06/29 08:38:26;;;;;;;;;41.00;30.33;;;;;29.22;44.00;101223.84;5067516;27;69302;-58
2023/06/29 08:40:52;;;;;;;;;43.00;34.33;;;;;29.27;44.31;101218.69;5072430;27;45828;-58
2023/06/29 08:43:18;;;;;;;;;39.00;31.00;;;;;29.27;43.98;101217.81;5075637;27;54210;-58
2023/06/29 08:45:44;;;;;;;;;38.33;32.33;;;;;29.14;43.90;101218.47;5069800;27;45374;-58
2023/06/29 08:48:12;;;;;;;;;44.33;36.00;;;;;29.02;44.00;101227.16;5073729;28;46345;-58
2023/06/29 08:50:51;;;;;;;;;40.33;33.00;;;;;28.88;43.70;101222.53;5071360;27;45476;-58
2023/06/29 08:53:17;;;;;;;;;39.67;31.67;;;;;28.84;44.08;101216.56;5069370;27;45470;-59
2023/06/29 08:55:43;;;;;;;;;44.00;33.33;;;;;28.94;44.48;101204.50;5078580;27;63160;-59
2023/06/29 08:58:08;;;;;;;;;38.00;32.00;;;;;29.18;44.03;101214.31;5070443;27;45442;-57
2023/06/29 09:00:35;;;;;;;;;40.33;34.67;;;;;29.29;43.69;101210.25;5075047;27;45347;-58
2023/06/29 09:03:00;;;;;;;;;38.33;32.33;;;;;29.32;43.69;101202.53;5102450;27;45507;-57
2023/06/29 09:05:26;;;;;;;;;37.00;31.67;;;;;29.50;43.60;101202.13;5066535;27;45795;-58
2023/06/29 09:07:53;;;;;;;;;38.00;32.00;;;;;29.56;43.66;101199.66;5081473;27;46205;-58
2023/06/29 09:10:18;;;;;;;;;37.33;32.00;;;;;29.58;42.96;101200.28;5071687;27;45314;-58
2023/06/29 09:12:44;;;;;;;;;40.00;32.67;;;;;29.75;43.13;101195.41;5077785;27;66544;-58
2023/06/29 09:15:10;;;;;;;;;36.67;30.33;;;;;30.75;42.23;101198.25;5082540;27;45497;-58
2023/06/29 09:17:36;;;;;;;;;41.00;33.67;;;;;31.15;41.76;101206.75;5074167;27;45668;-59
2023/06/29 09:20:13;;;;;;;;;41.67;33.67;;;;;30.86;40.73;101203.19;5091069;27;45435;-58
2023/06/29 09:22:39;;;;;;;;;33.67;30.67;;;;;30.33;41.25;101193.47;5078482;27;45511;-58
2023/06/29 09:25:06;;;;;;;;;37.67;33.00;;;;;29.85;41.75;101201.44;5078807;27;45405;-58
2023/06/29 09:27:33;;;;;;;;;39.67;30.67;;;;;29.45;42.25;101200.97;5066239;27;46265;-58
2023/06/29 09:30:00;;;;;;;;;35.67;30.67;;;;;29.15;42.51;101201.84;5069639;28;45433;-58
2023/06/29 09:32:28;;;;;;;;;39.67;34.33;;;;;28.92;43.40;101198.38;5093677;27;45929;-58
2023/06/29 09:34:53;;;;;;;;;36.67;32.33;;;;;28.82;43.01;101196.75;5079650;27;45789;-58
2023/06/29 09:37:19;;;;;;;;;32.33;29.33;;;;;28.77;43.23;101199.19;5064472;28;45345;-58
2023/06/29 09:39:56;;;;;;;;;37.33;32.33;;;;;28.70;43.76;101199.09;5073105;27;69153;-59
2023/06/29 09:42:23;;;;;;;;;38.67;31.33;;;;;28.74;43.44;101205.03;5076403;28;45504;-59
2023/06/29 09:44:48;;;;;;;;;35.67;32.67;;;;;28.85;43.67;101209.19;5071840;28;45473;-58
2023/06/29 09:47:14;;;;;;;;;39.00;32.00;;;;;28.88;43.66;101211.59;5072329;27;45936;-58
2023/06/29 09:49:49;;;;;;;;;40.67;32.67;;;;;28.79;42.98;101212.72;5078465;28;45720;-58
2023/06/29 09:52:15;;;;;;;;;33.00;30.33;;;;;28.71;43.20;101214.47;5076160;27;45789;-58
2023/06/29 09:54:41;;;;;;;;;35.00;26.33;;;;;28.75;43.32;101206.75;5073610;27;45501;-58
2023/06/29 09:57:10;;;;;;;;;35.33;29.00;;;;;28.86;42.95;101214.50;5075891;27;45624;-59
2023/06/29 09:59:37;;;;;;;;;31.67;28.67;;;;;29.04;42.73;101205.06;5071315;27;45420;-59
2023/06/29 10:02:03;;;;;;;;;27.67;27.67;;;;;29.30;42.06;101209.22;5067022;27;45463;-59
2023/06/29 10:04:29;;;;;;;;;32.67;30.00;;;;;29.62;41.61;101213.41;5090602;27;46147;-59
2023/06/29 10:07:07;;;;;;;;;33.00;30.00;;;;;30.33;41.52;101214.56;5080881;27;46141;-59
2023/06/29 10:09:37;;;;;;;;;34.00;30.00;;;;;30.75;40.21;101215.56;5080848;27;45322;-58
2023/06/29 10:12:02;;;;;;;;;34.67;30.33;;;;;30.87;39.28;101221.34;5075910;27;45497;-59
2023/06/29 10:14:28;;;;;;;;;36.33;28.67;;;;;30.91;39.32;101224.53;5069020;28;45401;-59
2023/06/29 10:16:55;;;;;;;;;36.00;28.33;;;;;30.92;38.71;101213.34;5075300;27;70765;-58
2023/06/29 10:19:23;;;;;;;;;42.00;30.67;;;;;30.91;39.08;101219.91;5078126;27;69416;-59
2023/06/29 10:21:58;;;;;;;;;45.33;35.33;;;;;30.86;39.12;101219.66;5071812;27;45548;-58
2023/06/29 10:24:27;;;;;;;;;40.33;34.00;;;;;30.56;39.16;101214.38;5078535;28;45438;-56
2023/06/29 10:26:53;;;;;;;;;43.67;35.33;;;;;30.27;39.72;101216.22;5067111;27;46562;-56
2023/06/29 10:29:19;;;;;;;;;47.67;37.67;;;;;30.13;40.14;101217.13;5077645;28;45687;-56
2023/06/29 10:31:48;;;;;;;;;47.67;37.00;;;;;29.99;40.26;101216.16;5064962;28;45522;-59
2023/06/29 10:34:13;;;;;;;;;40.67;34.33;;;;;30.36;39.84;101214.16;5073457;28;45640;-58
2023/06/29 10:36:49;;;;;;;;;44.33;35.33;;;;;30.97;39.55;101210.00;5090866;27;46250;-59
2023/06/29 10:39:37;;;;;;;;;42.33;34.67;;;;;31.33;38.97;101208.97;5085396;27;45384;-57
2023/06/29 10:42:24;;;;;;;;;45.00;35.00;;;;;31.35;38.11;101206.84;5070424;27;45528;-56
2023/06/29 10:44:49;;;;;;;;;43.00;35.33;;;;;31.47;38.37;101207.97;5070906;28;45411;-56
2023/06/29 10:47:28;;;;;;;;;49.33;41.00;;;;;31.74;38.29;101205.31;5071534;27;46908;-56
2023/06/29 10:50:09;;;;;;;;;43.67;37.00;;;;;32.54;37.74;101188.06;5071452;28;45417;-56
2023/06/29 10:52:35;;;;;;;;;53.33;40.33;;;;;33.58;34.41;101190.09;5059605;27;45402;-56
2023/06/29 10:55:16;;;;;;;;;46.33;34.67;;;;;34.46;34.57;101182.91;5075717;27;45521;-57
2023/06/29 10:57:51;;;;;;;;;47.00;39.00;;;;;35.20;33.02;101184.88;5072162;28;45383;-57
2023/06/29 11:00:17;;;;;;;;;45.67;37.00;;;;;35.69;32.75;101182.97;5078811;27;45564;-57
2023/06/29 11:02:43;;;;;;;;;47.00;39.00;;;;;35.82;32.09;101192.16;5071283;27;46150;-56
2023/06/29 11:05:16;;;;;;;;;45.00;36.67;;;;;35.79;31.38;101187.94;5081314;27;45467;-57